createdAt,value
2022-11-29T00:01:31.258Z,14.43
2022-11-29T00:03:58.693Z,16.83
2022-11-29T00:06:27.580Z,17.35
2022-11-29T00:08:55.664Z,17.48
2022-11-29T00:11:43.127Z,18.08
2022-11-29T00:14:11.658Z,18.15
2022-11-29T00:16:41.072Z,17.88
2022-11-29T00:19:09.051Z,16.73
2022-11-29T00:21:36.403Z,17.50
2022-11-29T00:24:03.605Z,17.67
2022-11-29T00:26:31.004Z,18.25
2022-11-29T00:28:58.424Z,16.88
2022-11-29T00:31:27.273Z,17.35
2022-11-29T00:33:54.635Z,18.48
2022-11-29T00:36:21.901Z,20.55
2022-11-29T00:38:49.268Z,18.67
2022-11-29T00:41:16.645Z,19.45
2022-11-29T00:43:44.001Z,19.35
2022-11-29T00:46:11.517Z,17.92
2022-11-29T00:48:38.782Z,16.67
2022-11-29T00:51:06.503Z,17.90
2022-11-29T00:53:34.307Z,16.65
2022-11-29T00:56:01.866Z,16.42
2022-11-29T00:58:29.206Z,18.38
2022-11-29T01:00:56.574Z,20.23
2022-11-29T01:03:24.011Z,16.67
2022-11-29T01:05:51.231Z,17.40
2022-11-29T01:08:18.450Z,17.27
2022-11-29T01:10:45.715Z,16.15
2022-11-29T01:13:12.903Z,17.70
2022-11-29T01:15:40.072Z,15.40
2022-11-29T01:18:07.310Z,17.23
2022-11-29T01:20:34.495Z,16.67
2022-11-29T01:23:01.631Z,17.05
2022-11-29T01:25:29.495Z,18.55
2022-11-29T01:27:56.855Z,15.57
2022-11-29T01:30:24.193Z,17.50
2022-11-29T01:32:51.699Z,16.23
2022-11-29T01:35:19.085Z,16.98
2022-11-29T01:37:46.468Z,15.93
2022-11-29T01:40:14.221Z,17.25
2022-11-29T01:42:41.771Z,18.15
2022-11-29T01:45:29.473Z,19.67
2022-11-29T01:47:57.917Z,18.88
2022-11-29T01:50:25.446Z,18.30
2022-11-29T01:52:53.525Z,18.30
2022-11-29T01:55:21.108Z,19.52
2022-11-29T01:57:48.859Z,18.85
2022-11-29T02:00:17.524Z,18.83
2022-11-29T02:03:02.952Z,19.48
2022-11-29T02:05:30.436Z,21.77
2022-11-29T02:07:59.484Z,22.33
2022-11-29T02:10:33.663Z,20.33
2022-11-29T02:13:14.334Z,24.65
2022-11-29T02:15:51.551Z,20.67
2022-11-29T02:18:23.348Z,20.92
2022-11-29T02:20:50.555Z,21.92
2022-11-29T02:23:36.404Z,20.17
2022-11-29T02:26:22.413Z,21.25
2022-11-29T02:29:05.828Z,19.67
2022-11-29T02:31:56.158Z,20.80
2022-11-29T02:34:38.595Z,23.38
2022-11-29T02:37:17.809Z,21.27
2022-11-29T02:39:57.108Z,20.70
2022-11-29T02:42:55.762Z,21.10
2022-11-29T02:45:35.803Z,26.13
2022-11-29T02:48:06.112Z,22.85
2022-11-29T02:50:45.739Z,23.08
2022-11-29T02:53:24.947Z,24.42
2022-11-29T02:56:11.013Z,22.67
2022-11-29T02:58:50.459Z,22.02
2022-11-29T03:01:18.029Z,20.42
2022-11-29T03:03:55.563Z,23.52
2022-11-29T03:06:32.260Z,21.52
2022-11-29T03:09:03.345Z,21.63
2022-11-29T03:11:35.212Z,20.50
2022-11-29T03:14:08.397Z,24.95
2022-11-29T03:16:54.485Z,22.08
2022-11-29T03:19:21.610Z,21.20
2022-11-29T03:21:53.139Z,20.80
2022-11-29T03:24:24.407Z,21.45
2022-11-29T03:26:55.044Z,22.25
2022-11-29T03:29:22.217Z,22.45
2022-11-29T03:32:01.475Z,23.75
2022-11-29T03:34:34.858Z,17.98
2022-11-29T03:37:07.137Z,24.65
2022-11-29T03:39:39.901Z,23.30
2022-11-29T03:42:09.404Z,24.67
2022-11-29T03:44:49.921Z,21.83
2022-11-29T03:47:20.315Z,23.63
2022-11-29T03:49:53.841Z,24.83
2022-11-29T03:54:54.463Z,21.65
2022-11-29T03:57:24.628Z,25.13
2022-11-29T04:00:04.686Z,23.70
2022-11-29T04:02:56.763Z,25.85
2022-11-29T04:05:42.832Z,31.73
2022-11-29T04:08:19.204Z,29.58
2022-11-29T04:11:05.204Z,29.95
2022-11-29T04:13:44.591Z,27.52
2022-11-29T04:16:14.838Z,30.40
2022-11-29T04:19:00.294Z,32.45
2022-11-29T04:21:33.533Z,29.77
2022-11-29T04:24:12.756Z,29.90
2022-11-29T04:26:48.536Z,25.52
2022-11-29T04:29:24.952Z,29.42
2022-11-29T04:32:12.624Z,29.52
2022-11-29T04:34:46.343Z,27.52
2022-11-29T04:37:32.559Z,29.83
2022-11-29T04:39:59.701Z,28.17
2022-11-29T04:42:43.795Z,29.63
2022-11-29T04:45:29.794Z,28.23
2022-11-29T04:48:11.134Z,26.73
2022-11-29T04:50:38.396Z,25.95
2022-11-29T04:53:17.926Z,22.67
2022-11-29T04:55:48.175Z,25.27
2022-11-29T04:58:35.091Z,24.35
2022-11-29T05:01:08.077Z,29.38
2022-11-29T05:03:37.807Z,23.27
2022-11-29T05:06:12.619Z,23.42
2022-11-29T05:08:49.100Z,25.90
2022-11-29T05:11:35.056Z,28.55
2022-11-29T05:14:24.998Z,25.50
2022-11-29T05:16:52.147Z,24.95
2022-11-29T05:19:25.397Z,24.73
2022-11-29T05:22:04.769Z,27.77
2022-11-29T05:24:40.653Z,35.03
2022-11-29T05:27:26.545Z,30.17
2022-11-29T05:30:00.515Z,107.30
2022-11-29T05:32:35.014Z,64.03
2022-11-29T05:35:05.311Z,35.13
2022-11-29T05:37:44.225Z,70.95
2022-11-29T05:40:14.424Z,35.38
2022-11-29T05:42:56.930Z,34.65
2022-11-29T05:45:33.373Z,29.13
2022-11-29T05:48:15.775Z,30.85
2022-11-29T05:50:46.682Z,26.88
2022-11-29T05:53:21.676Z,25.80
2022-11-29T05:56:15.270Z,24.58
2022-11-29T05:58:51.815Z,35.83
2022-11-29T06:01:18.957Z,37.50
2022-11-29T06:04:11.710Z,26.17
2022-11-29T06:06:45.612Z,28.92
2022-11-29T06:09:21.893Z,23.92
2022-11-29T06:11:51.365Z,24.05
2022-11-29T06:14:34.252Z,24.83
2022-11-29T06:17:25.911Z,24.07
2022-11-29T06:19:56.205Z,25.33
2022-11-29T06:22:31.385Z,25.23
2022-11-29T06:25:07.771Z,42.67
2022-11-29T06:28:02.383Z,24.75
2022-11-29T06:30:33.411Z,26.92
2022-11-29T06:33:07.989Z,22.20
2022-11-29T06:35:38.265Z,22.98
2022-11-29T06:38:10.800Z,24.27
2022-11-29T06:40:38.179Z,24.67
2022-11-29T06:43:05.458Z,24.05
2022-11-29T06:45:32.836Z,23.70
2022-11-29T06:48:03.608Z,24.00
2022-11-29T06:50:46.964Z,24.95
2022-11-29T06:53:36.177Z,22.83
2022-11-29T06:56:22.146Z,22.25
2022-11-29T06:59:12.719Z,27.27
2022-11-29T07:01:54.793Z,21.83
2022-11-29T07:04:46.719Z,19.98
2022-11-29T07:07:20.229Z,17.95
2022-11-29T07:12:15.033Z,24.45
2022-11-29T07:14:42.628Z,19.17
2022-11-29T07:17:22.270Z,21.67
2022-11-29T07:20:01.513Z,21.17
2022-11-29T07:22:37.558Z,22.38
2022-11-29T07:25:23.296Z,22.17
2022-11-29T07:27:56.962Z,22.58
2022-11-29T07:30:44.421Z,22.27
2022-11-29T07:33:30.170Z,21.85
2022-11-29T07:36:04.036Z,20.95
2022-11-29T07:38:53.061Z,22.13
2022-11-29T07:41:23.279Z,22.35
2022-11-29T07:44:00.036Z,20.88
2022-11-29T07:46:28.652Z,19.10
2022-11-29T07:48:56.018Z,19.95
2022-11-29T07:51:23.195Z,19.85
2022-11-29T07:53:51.765Z,20.90
2022-11-29T07:56:19.219Z,19.38
2022-11-29T07:58:46.763Z,18.58
2022-11-29T08:01:14.044Z,19.52
2022-11-29T08:03:42.366Z,19.05
2022-11-29T08:06:09.549Z,19.42
2022-11-29T08:08:40.690Z,19.85
2022-11-29T08:11:12.662Z,19.52
2022-11-29T08:13:39.845Z,17.55
2022-11-29T08:16:07.185Z,17.95
2022-11-29T08:18:34.396Z,19.05
2022-11-29T08:21:05.910Z,18.60
2022-11-29T08:23:33.112Z,20.30
2022-11-29T08:26:01.543Z,21.48
2022-11-29T08:28:28.796Z,18.63
2022-11-29T08:31:03.156Z,17.92
2022-11-29T08:33:30.387Z,19.17
2022-11-29T08:35:57.553Z,17.35
2022-11-29T08:38:24.770Z,19.52
2022-11-29T08:40:51.945Z,22.83
2022-11-29T08:43:19.174Z,17.92
2022-11-29T08:45:46.381Z,20.48
2022-11-29T08:48:14.938Z,15.10
2022-11-29T08:50:42.371Z,16.50
2022-11-29T08:53:28.275Z,16.52
2022-11-29T08:55:59.706Z,16.10
2022-11-29T08:58:27.392Z,16.67
2022-11-29T09:00:55.064Z,15.52
2022-11-29T09:03:41.145Z,14.65
2022-11-29T09:06:12.518Z,13.90
2022-11-29T09:08:40.507Z,15.60
2022-11-29T09:11:08.865Z,15.10
2022-11-29T09:13:36.456Z,15.75
2022-11-29T09:16:07.411Z,14.93
2022-11-29T09:18:34.651Z,15.48
2022-11-29T09:21:01.801Z,17.13
2022-11-29T09:23:29.025Z,15.60
2022-11-29T09:25:56.481Z,14.57
2022-11-29T09:28:23.726Z,15.23
2022-11-29T09:30:51.060Z,13.02
2022-11-29T09:33:18.325Z,18.33
2022-11-29T09:35:45.793Z,15.50
2022-11-29T09:38:13.511Z,15.02
2022-11-29T09:40:53.950Z,15.05
2022-11-29T09:43:24.155Z,15.48
2022-11-29T09:45:56.751Z,16.58
2022-11-29T09:48:23.984Z,14.88
2022-11-29T09:51:09.967Z,12.48
2022-11-29T09:53:47.479Z,11.80
2022-11-29T09:56:14.709Z,16.75
2022-11-29T09:58:50.107Z,22.63
2022-11-29T10:01:24.366Z,18.00
2022-11-29T10:03:54.046Z,15.13
2022-11-29T10:06:36.794Z,14.30
2022-11-29T10:09:16.224Z,14.98
2022-11-29T10:11:49.783Z,12.60
2022-11-29T10:14:22.801Z,12.38
2022-11-29T10:16:56.076Z,14.77
2022-11-29T10:19:36.991Z,14.20
2022-11-29T10:22:06.377Z,13.98
2022-11-29T10:24:34.255Z,13.65
2022-11-29T10:27:01.433Z,14.30
2022-11-29T10:29:28.627Z,13.52
2022-11-29T10:31:56.939Z,13.00
2022-11-29T10:34:25.426Z,12.55
2022-11-29T10:36:54.429Z,15.23
2022-11-29T10:39:24.596Z,12.10
2022-11-29T10:41:54.352Z,13.40
2022-11-29T10:44:21.586Z,14.32
2022-11-29T10:46:48.977Z,13.48
2022-11-29T10:49:17.976Z,12.23
2022-11-29T10:51:46.157Z,13.45
2022-11-29T10:54:19.416Z,13.80
2022-11-29T10:56:46.684Z,14.77
2022-11-29T10:59:24.571Z,12.43
2022-11-29T11:01:52.520Z,12.35
2022-11-29T11:04:27.002Z,11.15
2022-11-29T11:06:56.746Z,19.27
2022-11-29T11:09:33.385Z,11.75
2022-11-29T11:12:02.215Z,11.35
2022-11-29T11:14:33.019Z,11.38
2022-11-29T11:17:17.225Z,12.48
2022-11-29T11:19:54.485Z,12.65
2022-11-29T11:22:22.811Z,10.43
2022-11-29T11:24:57.426Z,13.13
2022-11-29T11:27:36.041Z,12.13
2022-11-29T11:30:05.784Z,15.90
2022-11-29T11:32:33.213Z,13.00
2022-11-29T11:35:01.538Z,11.02
2022-11-29T11:37:29.976Z,13.65
2022-11-29T11:40:21.011Z,10.85
2022-11-29T11:42:48.266Z,12.35
2022-11-29T11:45:15.416Z,12.63
2022-11-29T11:47:42.664Z,10.25
2022-11-29T11:50:30.201Z,11.27
2022-11-29T11:53:08.419Z,14.35
2022-11-29T11:55:43.817Z,12.73
2022-11-29T11:58:14.389Z,8.98
2022-11-29T12:01:03.067Z,13.00
2022-11-29T12:03:48.013Z,13.57
2022-11-29T12:06:18.455Z,19.23
2022-11-29T12:08:47.011Z,10.98
2022-11-29T12:11:15.723Z,13.68
2022-11-29T12:13:46.343Z,12.75
2022-11-29T12:16:27.167Z,12.00
2022-11-29T12:18:59.513Z,14.05
2022-11-29T12:21:28.514Z,16.20
2022-11-29T12:24:03.995Z,16.52
2022-11-29T12:26:58.604Z,17.27
2022-11-29T12:29:28.608Z,18.00
2022-11-29T12:32:05.223Z,8.73
2022-11-29T12:34:51.379Z,7.93
2022-11-29T12:37:44.295Z,8.80
2022-11-29T12:40:30.213Z,7.90
2022-11-29T12:42:57.431Z,8.48
2022-11-29T12:45:27.415Z,9.82
2022-11-29T12:48:06.827Z,10.85
2022-11-29T12:50:40.319Z,8.68
2022-11-29T12:53:27.617Z,13.82
2022-11-29T12:56:15.393Z,11.57
2022-11-29T12:59:06.190Z,7.63
2022-11-29T13:01:33.400Z,9.07
2022-11-29T13:04:03.809Z,7.57
2022-11-29T13:06:38.432Z,10.70
2022-11-29T13:09:20.632Z,6.63
2022-11-29T13:11:54.137Z,8.27
2022-11-29T13:17:27.211Z,7.20
2022-11-29T13:19:56.283Z,6.57
2022-11-29T13:22:30.079Z,10.50
2022-11-29T13:25:02.207Z,8.05
2022-11-29T13:27:35.869Z,8.23
2022-11-29T13:30:04.534Z,9.30
2022-11-29T13:32:40.538Z,10.57
2022-11-29T13:35:17.132Z,10.10
2022-11-29T13:37:54.808Z,7.30
2022-11-29T13:40:37.202Z,11.10
2022-11-29T13:43:16.385Z,13.57
2022-11-29T13:46:02.469Z,14.27
2022-11-29T13:48:29.696Z,10.52
2022-11-29T13:50:57.615Z,12.80
2022-11-29T13:53:26.228Z,8.00
2022-11-29T13:56:01.440Z,7.18
2022-11-29T13:58:28.688Z,12.93
2022-11-29T14:01:00.642Z,11.05
2022-11-29T14:03:33.324Z,11.20
2022-11-29T14:06:11.967Z,14.97
2022-11-29T14:09:17.719Z,9.35
2022-11-29T14:11:44.650Z,12.73
2022-11-29T14:14:22.080Z,12.45
2022-11-29T14:16:49.418Z,9.35
2022-11-29T14:19:22.915Z,11.05
2022-11-29T14:22:02.296Z,13.55
2022-11-29T14:24:32.842Z,7.53
2022-11-29T14:27:10.280Z,7.72
2022-11-29T14:29:50.013Z,9.13
2022-11-29T14:32:37.672Z,8.75
2022-11-29T14:35:10.789Z,8.88
2022-11-29T14:37:53.525Z,9.25
2022-11-29T14:40:20.759Z,8.00
2022-11-29T14:42:48.827Z,10.38
2022-11-29T14:45:33.025Z,8.82
2022-11-29T14:48:00.836Z,14.95
2022-11-29T14:50:30.616Z,12.82
2022-11-29T14:52:58.114Z,11.32
2022-11-29T14:55:25.287Z,9.20
2022-11-29T14:57:52.688Z,11.30
2022-11-29T15:00:21.556Z,8.98
2022-11-29T15:02:50.200Z,20.52
2022-11-29T15:05:22.679Z,9.88
2022-11-29T15:08:09.663Z,12.30
2022-11-29T15:10:40.356Z,13.68
2022-11-29T15:13:10.835Z,16.45
2022-11-29T15:15:51.102Z,14.55
2022-11-29T15:18:25.601Z,15.05
2022-11-29T15:21:00.208Z,10.80
2022-11-29T15:23:27.607Z,14.43
2022-11-29T15:25:55.949Z,12.48
2022-11-29T15:28:27.765Z,12.20
2022-11-29T15:31:08.964Z,12.90
2022-11-29T15:33:43.542Z,15.57
2022-11-29T15:36:13.780Z,11.25
2022-11-29T15:38:48.598Z,11.65
2022-11-29T15:41:23.346Z,15.45
2022-11-29T15:43:53.393Z,15.70
2022-11-29T15:46:21.898Z,11.02
2022-11-29T15:48:49.292Z,8.43
2022-11-29T15:51:16.433Z,15.50
2022-11-29T15:54:12.734Z,8.40
2022-11-29T15:56:43.677Z,9.50
2022-11-29T15:59:17.776Z,9.45
2022-11-29T16:01:47.369Z,14.45
2022-11-29T16:04:19.981Z,15.13
2022-11-29T16:06:48.555Z,14.95
2022-11-29T16:09:20.691Z,19.17
2022-11-29T16:11:48.459Z,18.13
2022-11-29T16:14:17.625Z,17.05
2022-11-29T16:16:47.133Z,15.75
2022-11-29T16:19:17.652Z,12.80
2022-11-29T16:21:45.089Z,12.50
2022-11-29T16:24:21.841Z,11.27
2022-11-29T16:26:50.018Z,10.43
2022-11-29T16:29:37.070Z,11.98
2022-11-29T16:32:23.022Z,12.05
2022-11-29T16:34:50.462Z,15.05
2022-11-29T16:37:19.645Z,14.07
2022-11-29T16:39:48.729Z,15.35
2022-11-29T16:42:20.549Z,12.80
2022-11-29T16:44:50.835Z,11.75
2022-11-29T16:47:21.991Z,13.52
2022-11-29T16:50:02.178Z,14.40
2022-11-29T16:52:33.506Z,17.10
2022-11-29T16:55:01.107Z,16.83
2022-11-29T16:57:29.487Z,15.00
2022-11-29T16:59:56.781Z,13.30
2022-11-29T17:02:24.217Z,14.00
2022-11-29T17:04:51.837Z,13.75
2022-11-29T17:07:23.759Z,15.82
2022-11-29T17:09:51.136Z,14.32
2022-11-29T17:12:19.075Z,19.55
2022-11-29T17:14:46.519Z,17.77
2022-11-29T17:17:17.660Z,19.05
2022-11-29T17:19:45.580Z,14.70
2022-11-29T17:22:13.066Z,16.67
2022-11-29T17:24:46.250Z,19.08
2022-11-29T17:27:15.085Z,21.70
2022-11-29T17:29:42.446Z,15.18
2022-11-29T17:32:09.886Z,14.15
2022-11-29T17:34:37.210Z,16.45
2022-11-29T17:37:04.450Z,16.30
2022-11-29T17:39:32.123Z,16.60
2022-11-29T17:41:59.453Z,13.65
2022-11-29T17:44:26.797Z,13.02
2022-11-29T17:46:54.170Z,14.82
2022-11-29T17:49:21.348Z,13.68
2022-11-29T17:51:53.299Z,14.05
2022-11-29T17:54:21.590Z,13.90
2022-11-29T17:56:49.318Z,12.45
2022-11-29T17:59:16.540Z,15.38
2022-11-29T18:01:43.795Z,12.85
2022-11-29T18:04:11.085Z,13.50
2022-11-29T18:06:39.746Z,13.82
2022-11-29T18:09:08.411Z,11.10
2022-11-29T18:11:48.060Z,13.55
2022-11-29T18:14:20.870Z,13.40
2022-11-29T18:16:48.224Z,10.50
2022-11-29T18:19:17.001Z,11.23
2022-11-29T18:21:44.572Z,14.95
2022-11-29T18:24:11.775Z,11.73
2022-11-29T18:26:39.754Z,11.27
2022-11-29T18:29:07.164Z,12.57
2022-11-29T18:31:35.571Z,9.65
2022-11-29T18:34:06.853Z,10.20
2022-11-29T18:36:35.474Z,10.63
2022-11-29T18:39:08.712Z,9.20
2022-11-29T18:41:36.397Z,9.35
2022-11-29T18:44:05.291Z,11.15
2022-11-29T18:46:32.894Z,12.45
2022-11-29T18:49:01.388Z,15.38
2022-11-29T18:51:29.700Z,13.10
2022-11-29T18:53:57.156Z,12.23
2022-11-29T18:56:25.148Z,12.40
2022-11-29T18:58:59.981Z,10.43
2022-11-29T19:01:28.210Z,9.23
2022-11-29T19:03:57.860Z,17.80
2022-11-29T19:06:26.450Z,17.90
2022-11-29T19:08:53.937Z,18.02
2022-11-29T19:11:22.388Z,17.40
2022-11-29T19:13:53.419Z,12.23
2022-11-29T19:16:22.245Z,16.10
2022-11-29T19:18:51.394Z,15.60
2022-11-29T19:21:18.975Z,13.25
2022-11-29T19:23:52.051Z,13.85
2022-11-29T19:26:19.331Z,11.80
2022-11-29T19:28:56.051Z,11.27
2022-11-29T19:31:25.133Z,11.50
2022-11-29T19:33:52.981Z,9.63
2022-11-29T19:36:22.029Z,9.93
2022-11-29T19:38:53.460Z,9.88
2022-11-29T19:41:26.478Z,11.82
2022-11-29T19:43:54.807Z,15.55
2022-11-29T19:46:23.932Z,11.10
2022-11-29T19:48:52.732Z,14.50
2022-11-29T19:51:20.390Z,19.40
2022-11-29T19:53:48.183Z,14.73
2022-11-29T19:56:17.015Z,15.27
2022-11-29T19:58:44.689Z,21.08
2022-11-29T20:01:13.803Z,16.45
2022-11-29T20:03:41.537Z,18.33
2022-11-29T20:06:09.397Z,18.85
2022-11-29T20:08:37.504Z,20.95
2022-11-29T20:11:11.110Z,18.15
2022-11-29T20:16:06.591Z,21.45
2022-11-29T20:18:34.353Z,18.00
2022-11-29T20:21:08.931Z,23.02
2022-11-29T20:23:36.170Z,19.48
2022-11-29T20:26:03.692Z,21.60
2022-11-29T20:28:31.044Z,25.27
2022-11-29T20:30:58.402Z,33.10
2022-11-29T20:33:26.466Z,22.20
2022-11-29T20:36:13.222Z,27.20
2022-11-29T20:38:43.416Z,21.95
2022-11-29T20:41:15.600Z,17.08
2022-11-29T20:43:56.252Z,12.65
2022-11-29T20:46:25.923Z,14.57
2022-11-29T20:48:57.188Z,12.38
2022-11-29T20:51:29.446Z,9.38
2022-11-29T20:53:58.675Z,9.75
2022-11-29T20:56:25.823Z,11.30
2022-11-29T20:58:53.474Z,10.25
2022-11-29T21:01:20.893Z,11.52
2022-11-29T21:03:48.499Z,13.38
2022-11-29T21:06:15.881Z,11.95
2022-11-29T21:08:43.322Z,11.07
2022-11-29T21:11:10.921Z,12.40
2022-11-29T21:13:38.410Z,11.35
2022-11-29T21:16:05.834Z,10.27
2022-11-29T21:18:34.056Z,9.68
2022-11-29T21:21:10.365Z,10.50
2022-11-29T21:23:47.942Z,11.40
2022-11-29T21:26:24.683Z,9.07
2022-11-29T21:29:01.599Z,10.93
2022-11-29T21:31:29.035Z,11.43
2022-11-29T21:33:56.424Z,9.52
2022-11-29T21:36:23.786Z,10.07
2022-11-29T21:38:55.062Z,9.10
2022-11-29T21:41:22.846Z,8.75
2022-11-29T21:44:05.977Z,8.73
2022-11-29T21:46:34.373Z,7.47
2022-11-29T21:49:01.846Z,10.25
2022-11-29T21:51:29.018Z,9.15
2022-11-29T21:53:56.415Z,9.07
2022-11-29T21:56:23.584Z,8.02
2022-11-29T21:58:50.827Z,9.18
2022-11-29T22:01:19.743Z,12.07
2022-11-29T22:03:47.377Z,10.02
2022-11-29T22:06:16.563Z,8.00
2022-11-29T22:08:43.931Z,9.35
2022-11-29T22:11:15.590Z,8.07
2022-11-29T22:14:02.570Z,7.80
2022-11-29T22:16:30.288Z,10.45
2022-11-29T22:18:57.556Z,7.78
2022-11-29T22:21:24.918Z,11.50
2022-11-29T22:23:53.151Z,10.82
2022-11-29T22:26:20.615Z,10.40
2022-11-29T22:28:47.807Z,14.13
2022-11-29T22:31:15.235Z,11.38
2022-11-29T22:33:42.598Z,13.40
2022-11-29T22:36:11.280Z,17.65
2022-11-29T22:38:39.056Z,19.13
2022-11-29T22:41:07.698Z,14.57
2022-11-29T22:43:35.551Z,15.20
2022-11-29T22:46:06.657Z,17.42
2022-11-29T22:48:38.647Z,16.17
2022-11-29T22:51:10.514Z,14.30
2022-11-29T22:53:38.851Z,14.40
2022-11-29T22:56:07.684Z,11.57
2022-11-29T22:58:35.092Z,10.85
2022-11-29T23:01:03.785Z,11.27
2022-11-29T23:06:32.734Z,9.85
2022-11-29T23:09:01.151Z,11.25
2022-11-29T23:11:29.357Z,10.02
2022-11-29T23:13:57.126Z,8.18
2022-11-29T23:16:25.987Z,15.00
2022-11-29T23:18:53.693Z,25.05
2022-11-29T23:21:31.238Z,21.25
2022-11-29T23:24:02.012Z,16.35
2022-11-29T23:26:39.031Z,14.20
2022-11-29T23:29:13.947Z,16.50
2022-11-29T23:31:41.504Z,14.07
2022-11-29T23:34:09.299Z,14.43
2022-11-29T23:36:36.690Z,10.25
2022-11-29T23:39:04.088Z,9.00
2022-11-29T23:41:31.439Z,8.07
2022-11-29T23:43:59.883Z,8.35
2022-11-29T23:46:27.096Z,8.75
2022-11-29T23:48:54.499Z,10.32
2022-11-29T23:51:21.842Z,10.93
2022-11-29T23:53:55.511Z,10.57
2022-11-29T23:56:23.271Z,11.60
2022-11-29T23:58:50.741Z,7.70
